Time;durP1;ratioP1;P1;durP2;ratioP2;P2;SDS_P1;SDS_P2;PMS_P1;PMS_P2;Temp;Humidity;BMP_temperature;BMP_pressure;BME280_temperature;BME280_humidity;BME280_pressure;Samples;Min_cycle;Max_cycle;Signal;HPM_P1;HPM_P2
2020/12/21 00:01:55;;;;;;;41.08;20.05;;;;;;;6.08;78.15;103245.79;1809832;79;21536;-80
2020/12/21 00:04:28;;;;;;;42.40;18.87;;;;;;;6.11;78.02;103249.07;1806299;79;21359;-78
2020/12/21 00:07:01;;;;;;;37.67;18.40;;;;;;;6.13;77.95;103252.55;1809408;79;21824;-80
2020/12/21 00:09:33;;;;;;;48.98;22.25;;;;;;;6.15;77.86;103252.35;1808036;79;21142;-80
2020/12/21 00:12:08;;;;;;;41.95;20.85;;;;;;;6.16;77.87;103256.86;1802786;79;21205;-79
2020/12/21 00:14:40;;;;;;;41.02;20.52;;;;;;;6.15;77.81;103254.61;1807568;79;21312;-78
2020/12/21 00:17:14;;;;;;;38.42;18.75;;;;;;;6.11;77.78;103257.34;1805054;79;21325;-79
2020/12/21 00:19:48;;;;;;;42.40;20.25;;;;;;;6.09;77.75;103260.80;1808018;79;21198;-80
2020/12/21 00:22:21;;;;;;;;;;;;;;;6.08;77.85;103258.20;1808850;79;21273;-79
2020/12/21 00:24:53;;;;;;;44.80;20.15;;;;;;;6.07;77.90;103255.09;1804682;79;20173;-80
2020/12/21 00:27:27;;;;;;;39.70;20.10;;;;;;;6.05;77.92;103244.23;1807144;79;21701;-79
2020/12/21 00:29:59;;;;;;;44.63;21.12;;;;;;;6.02;77.92;103247.84;1805702;79;21304;-81
2020/12/21 00:32:34;;;;;;;46.60;23.18;;;;;;;5.99;78.02;103246.81;1803644;79;21150;-79
2020/12/21 00:35:07;;;;;;;39.15;19.70;;;;;;;5.99;78.00;103250.95;1788246;79;21678;-79
2020/12/21 00:37:40;;;;;;;40.27;19.97;;;;;;;6.02;78.08;103250.59;1767656;81;21785;-79
2020/12/21 00:40:12;;;;;;;48.92;21.57;;;;;;;6.05;78.04;103251.66;1767689;81;21776;-79
2020/12/21 00:42:47;;;;;;;49.60;22.60;;;;;;;6.05;78.03;103245.61;1767168;80;21301;-79
2020/12/21 00:45:20;;;;;;;48.15;20.88;;;;;;;6.05;77.93;103244.77;1767736;81;21325;-79
2020/12/21 00:47:52;;;;;;;44.77;20.87;;;;;;;6.02;78.00;103246.46;1767477;80;21348;-79
2020/12/21 00:50:25;;;;;;;46.13;20.25;;;;;;;6.00;77.95;103235.63;1767185;81;21983;-79
2020/12/21 00:52:58;;;;;;;43.50;19.75;;;;;;;5.99;77.93;103247.66;1770128;80;21328;-77
2020/12/21 00:55:30;;;;;;;48.50;21.77;;;;;;;5.98;78.04;103237.66;1775567;81;21226;-78
2020/12/21 00:58:03;;;;;;;49.55;22.05;;;;;;;5.98;77.97;103234.91;1775413;79;21161;-77
2020/12/21 01:00:36;;;;;;;47.97;21.73;;;;;;;5.96;78.00;103238.86;1775587;81;21173;-77
2020/12/21 01:03:09;;;;;;;53.40;22.75;;;;;;;5.98;78.08;103237.66;1775321;81;21395;-78
2020/12/21 01:05:41;;;;;;;39.48;20.55;;;;;;;5.99;78.00;103233.88;1775729;81;21315;-78
2020/12/21 01:08:14;;;;;;;45.48;20.08;;;;;;;5.98;78.05;103234.06;1775571;80;21834;-76
2020/12/21 01:10:47;;;;;;;48.83;20.82;;;;;;;6.00;78.00;103236.13;1775403;80;21186;-77
2020/12/21 01:13:19;;;;;;;48.38;21.65;;;;;;;6.01;78.02;103232.33;1775347;81;21360;-78
2020/12/21 01:15:52;;;;;;;48.00;21.62;;;;;;;6.00;78.02;103241.14;1775496;81;21248;-77
2020/12/21 01:18:25;;;;;;;52.55;22.07;;;;;;;5.99;78.01;103244.05;1775341;81;21174;-77
2020/12/21 01:20:57;;;;;;;46.70;21.83;;;;;;;5.98;78.01;103236.28;1775334;81;21638;-76
2020/12/21 01:23:30;;;;;;;45.55;20.02;;;;;;;5.95;77.98;103234.38;1775488;81;21167;-76
2020/12/21 01:26:02;;;;;;;45.43;21.60;;;;;;;5.93;78.12;103233.70;1775576;81;21356;-76
2020/12/21 01:28:35;;;;;;;45.90;20.85;;;;;;;5.93;78.22;103233.70;1775523;79;21787;-77
2020/12/21 01:31:09;;;;;;;48.48;21.20;;;;;;;5.93;78.29;103227.65;1775294;81;21181;-76
2020/12/21 01:33:42;;;;;;;47.98;21.55;;;;;;;5.94;78.31;103227.15;1775448;81;21167;-76
2020/12/21 01:36:16;;;;;;;42.40;21.33;;;;;;;5.94;78.31;103227.15;1775727;81;21212;-78
2020/12/21 01:38:50;;;;;;;45.05;20.97;;;;;;;5.93;78.42;103230.94;1775478;81;21174;-77
2020/12/21 01:41:25;;;;;;;48.17;22.40;;;;;;;5.90;78.50;103222.48;1775474;81;21312;-77
2020/12/21 01:43:58;;;;;;;45.88;21.33;;;;;;;5.88;78.54;103223.69;1775591;81;21182;-77
2020/12/21 01:46:30;;;;;;;47.93;22.20;;;;;;;5.86;78.69;103216.11;1775851;79;21847;-79
2020/12/21 01:49:03;;;;;;;40.83;19.75;;;;;;;5.83;78.75;103224.19;1746195;81;21307;-80
2020/12/21 01:51:36;;;;;;;48.55;20.25;;;;;;;5.85;78.84;103223.50;1775615;81;21344;-78
2020/12/21 01:54:09;;;;;;;46.63;21.85;;;;;;;5.86;78.94;103217.48;1775761;79;21819;-77
2020/12/21 01:56:41;;;;;;;46.92;22.15;;;;;;;5.84;79.04;103211.25;1789192;79;21236;-80
2020/12/21 01:59:14;;;;;;;43.87;20.67;;;;;;;5.86;79.09;103211.97;1693002;83;21207;-77
2020/12/21 02:01:47;;;;;;;54.42;20.95;;;;;;;5.86;79.10;103214.73;1714872;82;21323;-78
2020/12/21 02:04:21;;;;;;;48.60;21.50;;;;;;;5.85;79.09;103212.47;1723595;83;21322;-79
2020/12/21 02:06:54;;;;;;;51.97;22.00;;;;;;;5.85;79.22;103213.85;1713932;84;21316;-77
2020/12/21 02:09:27;;;;;;;41.50;20.92;;;;;;;5.89;79.40;103215.25;1720116;82;21901;-78
2020/12/21 02:12:00;;;;;;;51.70;20.32;;;;;;;5.93;79.21;103214.40;1716324;82;21323;-78
2020/12/21 02:14:33;;;;;;;48.48;20.48;;;;;;;5.89;79.13;103209.73;1699634;84;21356;-77
2020/12/21 02:17:06;;;;;;;43.27;20.07;;;;;;;5.88;79.12;103211.28;1685301;84;21977;-78
2020/12/21 02:19:39;;;;;;;53.38;21.93;;;;;;;5.88;79.09;103208.52;1659801;85;21942;-77
2020/12/21 02:22:11;;;;;;;51.45;23.83;;;;;;;5.87;79.19;103203.51;1701204;83;21324;-77
2020/12/21 02:24:44;;;;;;;55.40;23.53;;;;;;;5.87;79.15;103204.05;1713100;83;21383;-79
2020/12/21 02:27:17;;;;;;;57.17;23.57;;;;;;;5.85;79.10;103208.84;1713925;82;21581;-79
2020/12/21 02:29:50;;;;;;;52.20;20.95;;;;;;;5.79;79.15;103202.09;1713873;84;21328;-77
2020/12/21 02:32:22;;;;;;;53.63;20.97;;;;;;;5.77;79.14;103207.41;1715761;84;21297;-77
2020/12/21 02:34:57;;;;;;;52.00;22.20;;;;;;;5.73;79.24;103204.66;1729555;82;21219;-78
2020/12/21 02:37:29;;;;;;;51.48;22.87;;;;;;;5.70;79.32;103203.11;1729090;83;21663;-79
2020/12/21 02:40:02;;;;;;;50.40;22.13;;;;;;;5.64;79.33;103196.88;1737407;82;21199;-78
2020/12/21 02:42:35;;;;;;;49.38;21.17;;;;;;;5.59;79.50;103199.77;1736807;82;21376;-79
2020/12/21 02:45:08;;;;;;;54.87;22.77;;;;;;;5.54;79.67;103207.16;1737211;82;21329;-81
2020/12/21 02:47:41;;;;;;;46.05;21.60;;;;;;;5.52;79.87;103202.84;1737145;82;21324;-77
2020/12/21 02:50:13;;;;;;;52.88;21.23;;;;;;;5.48;80.08;103206.95;1736847;82;21833;-78
2020/12/21 02:52:47;;;;;;;49.60;20.55;;;;;;;5.45;80.16;103195.73;1737528;82;21325;-78
2020/12/21 02:55:19;;;;;;;52.70;20.75;;;;;;;5.45;80.26;103201.78;1749816;80;21328;-79
2020/12/21 02:57:52;;;;;;;57.50;22.42;;;;;;;5.46;80.33;103197.99;1751046;82;21832;-77
2020/12/21 03:00:25;;;;;;;57.33;24.00;;;;;;;5.48;80.39;103199.56;1750434;82;21697;-76
2020/12/21 03:02:57;;;;;;;58.20;22.15;;;;;;;5.53;80.44;103196.30;1750291;82;21827;-78
2020/12/21 03:05:33;;;;;;;61.50;23.42;;;;;;;5.58;80.33;103202.17;1750787;82;21316;-78
2020/12/21 03:08:07;;;;;;;58.87;22.82;;;;;;;5.60;80.27;103202.86;1750451;82;21338;-80
2020/12/21 03:10:40;;;;;;;60.33;22.07;;;;;;;5.61;80.29;103204.62;1750843;80;21332;-77
2020/12/21 03:13:13;;;;;;;55.53;23.37;;;;;;;5.66;80.27;103198.95;1781505;80;21367;-77
2020/12/21 03:15:46;;;;;;;57.27;23.15;;;;;;;5.68;80.02;103203.77;1781409;80;21257;-77
2020/12/21 03:18:19;;;;;;;54.77;21.50;;;;;;;5.65;79.88;103194.97;1781251;80;21693;-79
2020/12/21 03:20:51;;;;;;;62.15;21.33;;;;;;;5.59;79.92;103201.14;1781107;80;21182;-77
2020/12/21 03:23:24;;;;;;;55.17;19.25;;;;;;;5.53;80.01;103204.06;1781158;80;21376;-77
2020/12/21 03:25:57;;;;;;;46.43;19.87;;;;;;;5.51;80.11;103208.01;1781142;80;21264;-77
2020/12/21 03:28:29;;;;;;;46.85;20.35;;;;;;;5.53;80.19;103210.95;1781632;80;21336;-79
2020/12/21 03:31:02;;;;;;;56.33;20.08;;;;;;;5.54;80.17;103209.04;1781578;80;21312;-79
2020/12/21 03:33:35;;;;;;;43.42;18.90;;;;;;;5.52;80.13;103206.97;1781306;80;21186;-78
2020/12/21 03:36:09;;;;;;;48.10;21.27;;;;;;;5.45;80.28;103199.87;1781455;80;21221;-78
2020/12/21 03:38:41;;;;;;;53.80;20.93;;;;;;;5.41;80.44;103197.62;1750745;82;21162;-75
2020/12/21 03:41:14;;;;;;;51.75;21.42;;;;;;;5.38;80.56;103199.34;1750328;82;22034;-75
2020/12/21 03:43:47;;;;;;;53.07;20.53;;;;;;;5.36;80.69;103197.25;1750747;82;21324;-75
2020/12/21 03:46:19;;;;;;;49.27;21.20;;;;;;;5.34;80.73;103201.56;1750668;82;21379;-76
2020/12/21 03:48:52;;;;;;;53.30;20.25;;;;;;;5.33;80.78;103200.34;1750836;82;21170;-75
2020/12/21 03:51:25;;;;;;;52.50;21.42;;;;;;;5.35;80.87;103199.66;1750534;82;21202;-76
2020/12/21 03:53:59;;;;;;;56.55;22.27;;;;;;;5.39;80.80;103199.69;1750494;82;21399;-74
2020/12/21 03:56:33;;;;;;;50.05;20.48;;;;;;;5.42;80.70;103192.45;1744155;82;21331;-77
2020/12/21 03:59:06;;;;;;;57.27;20.70;;;;;;;5.40;80.64;103191.27;1774105;81;21198;-77
2020/12/21 04:01:39;;;;;;;50.05;19.60;;;;;;;5.37;80.62;103190.73;1773924;81;21280;-77
2020/12/21 04:04:12;;;;;;;56.63;21.40;;;;;;;5.36;80.68;103193.11;1773955;81;21166;-76
2020/12/21 04:06:45;;;;;;;57.55;21.70;;;;;;;5.36;80.80;103200.88;1773869;81;21245;-77
2020/12/21 04:09:17;;;;;;;45.40;19.87;;;;;;;5.39;80.73;103194.18;1773813;81;21170;-77
2020/12/21 04:11:50;;;;;;;47.60;20.47;;;;;;;5.41;80.65;103186.61;1773812;81;21190;-77
2020/12/21 04:14:23;;;;;;;48.80;20.72;;;;;;;5.39;80.60;103190.92;1773733;81;21677;-78
2020/12/21 04:16:55;;;;;;;54.93;21.73;;;;;;;5.39;80.50;103188.17;1774007;81;21241;-77
2020/12/21 04:19:30;;;;;;;54.50;21.87;;;;;;;5.36;80.41;103187.61;1773794;81;21236;-78
2020/12/21 04:22:03;;;;;;;44.85;19.92;;;;;;;5.31;80.45;103193.62;1773903;81;21186;-79
2020/12/21 04:24:36;;;;;;;47.48;19.45;;;;;;;5.30;80.63;103191.02;1774062;81;21190;-77
2020/12/21 04:27:09;;;;;;;44.55;18.27;;;;;;;5.30;80.69;103190.52;1773887;80;21194;-78
2020/12/21 04:29:42;;;;;;;48.90;20.37;;;;;;;5.27;80.68;103192.24;1773944;81;21885;-76
2020/12/21 04:32:15;;;;;;;45.50;19.48;;;;;;;5.27;80.72;103195.50;1773926;81;21677;-78
2020/12/21 04:34:47;;;;;;;51.37;20.23;;;;;;;5.27;80.87;103189.98;1773963;81;21375;-78
2020/12/21 04:37:20;;;;;;;51.90;21.42;;;;;;;5.25;80.98;103190.14;1773893;81;21257;-78
2020/12/21 04:39:53;;;;;;;59.38;22.27;;;;;;;5.25;81.16;103189.30;1773998;81;21258;-77
2020/12/21 04:42:25;;;;;;;53.48;22.17;;;;;;;5.24;81.15;103187.55;1773840;81;21185;-78
2020/12/21 04:44:58;;;;;;;47.50;20.67;;;;;;;5.22;81.28;103190.98;1774516;81;21804;-78
2020/12/21 04:47:31;;;;;;;43.87;20.95;;;;;;;5.26;81.28;103182.76;1774330;81;21293;-78
2020/12/21 04:50:05;;;;;;;53.65;20.50;;;;;;;5.29;81.21;103190.17;1753436;81;21395;-77
2020/12/21 04:52:49;;;;;;;61.67;22.30;;;;;;;5.28;81.17;103193.96;1774602;81;21704;-79
2020/12/21 04:55:23;;;;;;;58.50;21.77;;;;;;;5.25;81.14;103192.05;1774302;81;21189;-77
2020/12/21 04:57:59;;;;;;;;;;;;;;;5.21;81.26;103192.90;1780897;80;21213;-77
2020/12/21 05:00:33;;;;;;;48.92;21.97;;;;;;;5.21;81.31;103201.66;1782066;80;20295;-78
2020/12/21 05:03:06;;;;;;;54.93;22.50;;;;;;;5.21;81.30;103192.90;1785236;80;21312;-77
2020/12/21 05:05:41;;;;;;;54.25;22.32;;;;;;;5.21;81.25;103195.65;1783245;79;21312;-76
2020/12/21 05:08:20;;;;;;;47.37;21.43;;;;;;;5.25;81.16;103189.30;1803255;79;21225;-77
2020/12/21 05:11:06;;;;;;;49.50;21.87;;;;;;;5.25;80.95;103186.02;1800151;79;21336;-79
2020/12/21 05:13:39;;;;;;;47.00;22.20;;;;;;;5.27;80.65;103189.48;1814181;79;21167;-78
2020/12/21 05:16:12;;;;;;;53.38;23.98;;;;;;;5.29;80.62;103194.81;1814451;79;21784;-79
2020/12/21 05:18:45;;;;;;;56.98;23.38;;;;;;;5.31;80.51;103192.77;1814390;79;21171;-74
2020/12/21 05:21:17;;;;;;;58.17;23.43;;;;;;;5.33;80.34;103196.22;1814421;79;21317;-75
2020/12/21 05:23:56;;;;;;;52.50;22.58;;;;;;;5.33;80.19;103195.72;1814355;79;21403;-76
2020/12/21 05:26:33;;;;;;;56.00;22.62;;;;;;;5.33;80.04;103198.97;1811731;79;21186;-80
2020/12/21 05:29:06;;;;;;;59.35;23.47;;;;;;;5.30;79.93;103201.53;1814114;79;21321;-80
2020/12/21 05:31:42;;;;;;;61.63;24.70;;;;;;;5.29;79.95;103201.19;1814587;79;21186;-80
2020/12/21 05:34:24;;;;;;;60.70;23.35;;;;;;;5.28;80.01;103202.73;1805235;79;21650;-77
2020/12/21 05:36:57;;;;;;;56.30;20.88;;;;;;;5.23;80.08;103207.35;1715960;83;21325;-84
2020/12/21 05:39:30;;;;;;;62.35;22.52;;;;;;;5.20;80.22;103211.80;1799298;79;21704;-84
2020/12/21 05:42:12;;;;;;;58.40;22.02;;;;;;;5.16;80.38;103220.05;1815655;79;21319;-82
2020/12/21 05:44:55;;;;;;;59.50;23.75;;;;;;;5.13;80.47;103214.02;1813231;79;21339;-84
2020/12/21 05:47:28;;;;;;;55.33;21.97;;;;;;;5.09;80.56;103216.23;1814841;79;21217;-84
2020/12/21 05:50:07;;;;;;;48.78;20.92;;;;;;;5.10;80.54;103217.08;1815003;79;21962;-82
2020/12/21 05:52:39;;;;;;;54.40;23.20;;;;;;;5.07;80.50;103216.88;1816257;79;21162;-84
2020/12/21 05:55:12;;;;;;;69.87;23.62;;;;;;;5.08;80.42;103223.27;1814827;79;21297;-78
2020/12/21 05:57:46;;;;;;;;;;;;;;;5.09;80.38;103218.98;1792888;79;21871;-76
2020/12/21 06:00:19;;;;;;;64.67;23.53;;;;;;;5.11;80.19;103230.69;1801930;79;20316;-76
2020/12/21 06:02:52;;;;;;;53.25;21.12;;;;;;;5.12;80.16;103233.78;1800686;79;21308;-86
2020/12/21 06:05:25;;;;;;;;;;;;;;;5.13;80.03;103231.91;1807240;79;21190;-76
2020/12/21 06:07:58;;;;;;;56.92;22.20;;;;;;;5.14;79.95;103230.88;1803931;79;20281;-76
2020/12/21 06:10:31;;;;;;;57.60;22.45;;;;;;;5.15;79.62;103233.98;1801980;79;21343;-76
2020/12/21 06:13:05;;;;;;;60.23;23.15;;;;;;;5.15;79.52;103236.73;1761990;79;22070;-84
2020/12/21 06:15:37;;;;;;;61.18;22.90;;;;;;;5.14;79.21;103236.38;1776118;79;21325;-76
2020/12/21 06:18:10;;;;;;;57.33;23.97;;;;;;;5.14;79.22;103236.38;1803384;79;22276;-75
2020/12/21 06:20:46;;;;;;;69.07;24.52;;;;;;;5.15;79.19;103241.73;1775565;81;21352;-75
2020/12/21 06:23:18;;;;;;;67.80;23.22;;;;;;;5.14;79.19;103245.48;1775306;79;21674;-76
2020/12/21 06:25:51;;;;;;;62.58;24.63;;;;;;;5.11;79.14;103240.32;1771211;79;21767;-76
2020/12/21 06:28:30;;;;;;;62.30;20.97;;;;;;;5.08;79.12;103243.38;1774861;81;21399;-81
2020/12/21 06:31:19;;;;;;;60.25;22.77;;;;;;;5.05;79.32;103236.84;1774865;81;21343;-81
2020/12/21 06:33:53;;;;;;;70.10;25.77;;;;;;;5.04;79.33;103235.12;1789399;79;21327;-75
2020/12/21 06:36:32;;;;;;;76.62;25.80;;;;;;;5.04;79.32;103231.48;1775044;81;21178;-74
2020/12/21 06:39:10;;;;;;;74.47;27.22;;;;;;;5.06;79.32;103237.72;1744605;82;21210;-74
2020/12/21 06:41:44;;;;;;;63.67;24.27;;;;;;;5.09;79.31;103241.01;1738813;82;21197;-75
2020/12/21 06:44:17;;;;;;;73.02;26.30;;;;;;;5.13;79.26;103244.30;1759021;81;21374;-73
2020/12/21 06:46:49;;;;;;;77.83;28.57;;;;;;;5.15;79.18;103242.23;1775366;81;21812;-77
2020/12/21 06:49:23;;;;;;;71.85;25.60;;;;;;;5.16;78.91;103235.70;1775238;81;21328;-75
2020/12/21 06:51:55;;;;;;;67.42;24.02;;;;;;;5.14;78.95;103235.85;1751441;79;21206;-75
2020/12/21 06:54:28;;;;;;;68.60;27.43;;;;;;;5.14;78.87;103246.02;1727010;82;21916;-75
2020/12/21 06:57:01;;;;;;;69.85;25.82;;;;;;;5.16;78.99;103254.97;1773385;81;22244;-77
2020/12/21 06:59:33;;;;;;;70.92;27.80;;;;;;;5.15;78.86;103245.86;1757994;81;21210;-76
2020/12/21 07:02:06;;;;;;;63.73;25.75;;;;;;;5.12;78.95;103248.93;1727489;83;21904;-76
2020/12/21 07:04:39;;;;;;;71.37;26.40;;;;;;;5.11;79.06;103244.45;1759299;81;21306;-75
2020/12/21 07:07:12;;;;;;;78.05;30.10;;;;;;;5.08;79.12;103248.05;1728291;83;21832;-77
2020/12/21 07:09:45;;;;;;;82.30;29.07;;;;;;;5.07;79.35;103242.19;1759373;81;21417;-76
2020/12/21 07:12:17;;;;;;;68.20;27.23;;;;;;;5.06;79.34;103250.11;1728142;83;21868;-77
2020/12/21 07:14:50;;;;;;;76.53;27.07;;;;;;;5.09;79.40;103247.89;1759688;81;21175;-77
2020/12/21 07:17:23;;;;;;;68.00;26.87;;;;;;;5.13;79.42;103255.31;1727979;83;21444;-78
2020/12/21 07:19:55;;;;;;;64.17;26.82;;;;;;;5.19;79.21;103254.13;1759503;81;21210;-78
2020/12/21 07:22:29;;;;;;;;;;;;;;;5.23;79.09;103251.41;1731103;83;21845;-77
2020/12/21 07:25:01;;;;;;;76.97;29.05;;;;;;;5.25;78.99;103243.00;1749538;82;20866;-78
2020/12/21 07:27:34;;;;;;;70.65;26.48;;;;;;;5.23;78.75;103248.66;1753310;82;21246;-77
2020/12/21 07:30:11;;;;;;;72.45;28.55;;;;;;;5.20;78.89;103249.50;1753486;82;21238;-77
2020/12/21 07:32:44;;;;;;;85.50;29.57;;;;;;;5.18;78.99;103256.54;1751626;82;21249;-77
2020/12/21 07:35:17;;;;;;;;;;;;;;;5.17;79.04;103257.57;1753007;82;21238;-79
2020/12/21 07:37:51;;;;;;;69.67;28.30;;;;;;;5.19;79.12;103250.53;1751446;81;20637;-80
2020/12/21 07:40:23;;;;;;;75.05;27.95;;;;;;;5.19;79.18;103256.04;1753638;82;21328;-78
2020/12/21 07:42:59;;;;;;;74.00;29.42;;;;;;;5.19;79.11;103255.51;1750073;82;21375;-82
2020/12/21 07:45:30;;;;;;;70.40;27.20;;;;;;;5.19;79.13;103251.91;1732439;81;21316;-77
2020/12/21 07:48:06;;;;;;;79.25;26.60;;;;;;;5.23;79.20;103256.05;1754555;81;21339;-77
2020/12/21 07:50:38;;;;;;;79.43;29.27;;;;;;;5.24;78.92;103260.52;1753870;82;21356;-77
2020/12/21 07:53:10;;;;;;;73.95;26.97;;;;;;;5.24;78.92;103264.66;1753672;82;21423;-76
2020/12/21 07:55:45;;;;;;;64.87;26.50;;;;;;;5.22;78.74;103251.57;1753762;82;21662;-78
2020/12/21 07:58:17;;;;;;;76.73;27.13;;;;;;;5.18;78.80;103254.28;1735601;81;21227;-76
2020/12/21 08:00:56;;;;;;;60.33;26.80;;;;;;;5.15;78.98;103250.00;1742270;82;21213;-75
2020/12/21 08:03:30;;;;;;;65.50;25.87;;;;;;;5.13;79.17;103251.19;1711033;84;21506;-76
2020/12/21 08:06:16;;;;;;;60.20;24.43;;;;;;;5.09;79.07;103251.14;1685735;85;21422;-79
2020/12/21 08:08:50;;;;;;;48.23;21.05;;;;;;;5.03;79.15;103255.42;1710813;84;21814;-76
2020/12/21 08:11:23;;;;;;;57.17;23.35;;;;;;;5.00;79.07;103259.02;1711126;84;21224;-75
2020/12/21 08:13:56;;;;;;;53.53;22.47;;;;;;;5.01;79.14;103249.19;1710816;84;21878;-77
2020/12/21 08:16:29;;;;;;;63.50;23.07;;;;;;;5.06;79.12;103248.73;1711059;84;21699;-76
2020/12/21 08:19:01;;;;;;;59.38;25.02;;;;;;;5.08;79.08;103248.89;1711060;84;21247;-76
2020/12/21 08:21:36;;;;;;;58.50;23.40;;;;;;;5.15;79.11;103249.12;1711147;84;21668;-76
2020/12/21 08:24:12;;;;;;;49.25;21.55;;;;;;;5.20;79.03;103250.34;1716544;82;21278;-75
2020/12/21 08:26:46;;;;;;;46.00;19.98;;;;;;;5.22;78.84;103248.31;1729460;82;21306;-75
2020/12/21 08:29:20;;;;;;;;;;;;;;;5.24;78.39;103250.38;1713649;84;21225;-75
2020/12/21 08:31:52;;;;;;;;;;;;;;;5.26;78.23;103252.45;1713739;84;20229;-76
2020/12/21 08:34:24;;;;;;;46.60;18.60;;;;;;;5.24;78.09;103250.38;1710888;84;20252;-76
2020/12/21 08:36:58;;;;;;;38.40;17.30;;;;;;;5.22;77.92;103252.45;1710894;84;21392;-76
2020/12/21 08:39:31;;;;;;;43.95;20.48;;;;;;;5.23;77.78;103245.91;1711028;84;21439;-75
2020/12/21 08:42:05;;;;;;;47.93;21.57;;;;;;;5.23;77.67;103246.41;1732496;82;21211;-76
2020/12/21 08:44:38;;;;;;;52.53;21.40;;;;;;;5.24;77.77;103244.88;1729296;82;21215;-76
2020/12/21 08:47:10;;;;;;;53.70;20.60;;;;;;;5.26;77.72;103240.05;1711285;84;21238;-77
2020/12/21 08:49:44;;;;;;;47.80;17.92;;;;;;;5.29;77.72;103241.62;1710755;83;21214;-77
2020/12/21 08:52:19;;;;;;;54.42;22.77;;;;;;;5.29;77.63;103247.13;1707126;84;21182;-76
2020/12/21 08:54:52;;;;;;;66.05;24.05;;;;;;;5.28;77.58;103241.28;1710957;83;21811;-75
2020/12/21 08:57:24;;;;;;;52.45;23.87;;;;;;;5.29;77.61;103236.12;1710733;84;21190;-76
2020/12/21 08:59:57;;;;;;;45.43;20.43;;;;;;;5.30;77.64;103235.96;1711393;84;21436;-75
2020/12/21 09:02:30;;;;;;;50.27;22.00;;;;;;;5.33;77.60;103237.03;1732624;81;21216;-74
2020/12/21 09:05:05;;;;;;;44.80;19.70;;;;;;;5.37;77.56;103237.03;1760357;81;21318;-74
2020/12/21 09:07:38;;;;;;;42.53;17.87;;;;;;;5.38;77.37;103232.39;1760586;81;21325;-75
2020/12/21 09:10:11;;;;;;;53.52;19.05;;;;;;;5.35;77.37;103226.70;1760435;81;21230;-75
2020/12/21 09:12:44;;;;;;;45.23;21.12;;;;;;;5.34;77.50;103222.73;1750104;81;21635;-76
2020/12/21 09:15:17;;;;;;;43.50;19.87;;;;;;;5.33;77.55;103219.13;1736594;82;21397;-77
2020/12/21 09:17:49;;;;;;;43.10;19.05;;;;;;;5.32;77.53;103222.03;1773769;81;21820;-75
2020/12/21 09:20:22;;;;;;;43.40;18.12;;;;;;;5.34;77.50;103212.59;1773386;81;22347;-75
2020/12/21 09:22:55;;;;;;;35.37;15.40;;;;;;;5.38;77.43;103214.49;1784939;79;21701;-74
2020/12/21 09:25:28;;;;;;;33.42;13.83;;;;;;;5.39;77.40;103217.09;1806659;79;22683;-74
2020/12/21 09:28:01;;;;;;;37.37;15.37;;;;;;;5.37;77.47;103214.15;1801619;79;21155;-75
2020/12/21 09:30:33;;;;;;;30.25;15.15;;;;;;;5.32;77.60;103209.64;1802069;79;21955;-82
2020/12/21 09:33:06;;;;;;;27.10;13.35;;;;;;;5.32;77.70;103203.60;1800729;79;21183;-83
2020/12/21 09:35:39;;;;;;;27.35;14.03;;;;;;;5.31;77.74;103203.26;1781047;79;21284;-82
2020/12/21 09:38:12;;;;;;;33.93;15.00;;;;;;;5.31;77.84;103194.16;1778597;79;21175;-75
2020/12/21 09:40:44;;;;;;;37.83;14.00;;;;;;;5.27;77.90;103195.00;1789868;79;21206;-81
2020/12/21 09:43:17;;;;;;;26.10;13.10;;;;;;;5.23;78.05;103188.08;1788227;79;21375;-83
2020/12/21 09:45:50;;;;;;;33.98;15.08;;;;;;;5.20;78.09;103186.17;1788317;79;21349;-80
2020/12/21 09:48:23;;;;;;;32.30;15.55;;;;;;;5.17;78.18;103183.73;1759391;81;21710;-82
2020/12/21 09:50:56;;;;;;;30.95;14.10;;;;;;;5.18;78.34;103181.32;1788346;79;21270;-83
2020/12/21 09:53:28;;;;;;;40.37;15.33;;;;;;;5.16;78.43;103187.02;1789072;79;21796;-86
2020/12/21 09:56:01;;;;;;;35.13;14.83;;;;;;;5.12;78.40;103189.73;1766765;81;21617;-83
2020/12/21 09:58:34;;;;;;;31.75;13.50;;;;;;;5.06;78.42;103190.39;1798284;79;21682;-85
2020/12/21 10:01:08;;;;;;;27.22;12.10;;;;;;;5.03;78.60;103184.34;1768017;81;21667;-85
2020/12/21 10:03:42;;;;;;;29.67;13.87;;;;;;;5.02;78.60;103181.25;1801822;79;21906;-83
2020/12/21 10:06:15;;;;;;;35.83;16.40;;;;;;;5.02;78.63;103182.63;1808099;79;21740;-83
2020/12/21 10:08:48;;;;;;;27.87;13.88;;;;;;;5.02;78.63;103177.12;1803192;78;21705;-83
2020/12/21 10:11:20;;;;;;;35.48;15.28;;;;;;;5.00;78.59;103177.81;1808088;79;21375;-81
2020/12/21 10:13:53;;;;;;;31.37;14.10;;;;;;;5.00;78.67;103176.43;1806832;79;21161;-84
2020/12/21 10:16:26;;;;;;;28.83;14.58;;;;;;;5.03;78.50;103175.59;1805045;79;21343;-81
2020/12/21 10:18:59;;;;;;;31.07;12.43;;;;;;;5.05;78.43;103168.02;1806717;79;21265;-81
2020/12/21 10:21:34;;;;;;;30.70;13.67;;;;;;;5.06;78.40;103170.27;1803109;79;21194;-82
2020/12/21 10:24:07;;;;;;;30.77;12.73;;;;;;;5.05;78.15;103174.02;1807870;79;21222;-82
2020/12/21 10:26:40;;;;;;;28.67;12.10;;;;;;;4.99;78.15;103165.04;1806258;79;21198;-81
2020/12/21 10:29:14;;;;;;;24.97;12.03;;;;;;;4.97;78.24;103168.48;1804202;79;21347;-73
2020/12/21 10:31:48;;;;;;;37.88;15.83;;;;;;;5.01;78.19;103161.10;1807124;79;21138;-74
2020/12/21 10:34:21;;;;;;;43.48;16.77;;;;;;;5.05;78.14;103157.50;1807906;79;21828;-73
2020/12/21 10:36:54;;;;;;;57.10;23.32;;;;;;;5.09;78.13;103160.30;1806630;79;21165;-74
2020/12/21 10:39:27;;;;;;;73.40;26.73;;;;;;;5.09;78.31;103161.17;1812800;79;21791;-83
2020/12/21 10:41:59;;;;;;;61.47;25.07;;;;;;;5.08;78.60;103158.57;1792432;79;21312;-81
2020/12/21 10:44:32;;;;;;;66.47;25.27;;;;;;;5.09;78.79;103157.54;1797941;79;21336;-85
2020/12/21 10:47:05;;;;;;;63.27;25.53;;;;;;;5.16;78.84;103154.47;1798748;79;21328;-82
2020/12/21 10:49:38;;;;;;;57.30;24.63;;;;;;;5.20;78.90;103151.22;1792170;79;21364;-82
2020/12/21 10:52:11;;;;;;;63.02;26.73;;;;;;;5.24;78.87;103153.13;1800536;79;21237;-83
2020/12/21 10:54:44;;;;;;;58.10;25.27;;;;;;;5.20;78.81;103149.00;1805639;79;21288;-83
2020/12/21 10:57:17;;;;;;;66.17;27.43;;;;;;;5.14;78.96;103148.28;1795310;79;21170;-82
2020/12/21 10:59:50;;;;;;;63.77;26.37;;;;;;;5.08;79.04;103145.65;1787390;79;21813;-84
2020/12/21 11:02:22;;;;;;;55.33;22.65;;;;;;;5.02;79.17;103146.31;1770157;81;21391;-78
2020/12/21 11:04:55;;;;;;;65.80;25.50;;;;;;;4.91;79.30;103151.24;1793454;79;21682;-81
2020/12/21 11:07:28;;;;;;;68.02;26.93;;;;;;;4.83;79.55;103147.92;1808490;79;21176;-78
2020/12/21 11:10:08;;;;;;;78.40;27.63;;;;;;;4.75;79.71;103153.88;1798284;78;21183;-86
2020/12/21 11:12:38;;;;;;;68.60;27.05;;;;;;;4.67;79.89;103153.34;1805603;79;21260;-81
2020/12/21 11:15:13;;;;;;;61.85;23.15;;;;;;;4.68;80.08;103145.93;1801541;79;21324;-82
2020/12/21 11:17:47;;;;;;;62.55;24.30;;;;;;;4.63;80.12;103155.17;1786410;79;21331;-75
2020/12/21 11:20:21;;;;;;;63.87;26.85;;;;;;;4.53;80.22;103153.91;1781600;80;21307;-75
2020/12/21 11:22:54;;;;;;;65.65;24.47;;;;;;;4.42;80.33;103152.81;1770894;79;21713;-75
2020/12/21 11:25:27;;;;;;;75.55;29.07;;;;;;;4.33;80.64;103151.00;1813562;79;21213;-78
2020/12/21 11:28:03;;;;;;;66.87;26.50;;;;;;;4.27;80.97;103149.42;1813813;79;21308;-74
2020/12/21 11:30:37;;;;;;;73.03;29.17;;;;;;;4.24;81.25;103146.97;1811093;79;21804;-76
2020/12/21 11:33:10;;;;;;;71.10;27.60;;;;;;;4.23;81.45;103152.13;1806784;79;22321;-76
2020/12/21 11:35:43;;;;;;;72.00;28.12;;;;;;;4.24;81.48;103149.72;1808656;79;21194;-78
2020/12/21 11:38:16;;;;;;;97.15;33.60;;;;;;;4.18;81.59;103147.11;1814750;79;21384;-77
2020/12/21 11:40:49;;;;;;;66.17;24.67;;;;;;;4.09;81.76;103147.20;1814655;79;21748;-77
2020/12/21 11:43:22;;;;;;;59.35;24.63;;;;;;;4.15;82.11;103153.44;1809896;79;21308;-75
2020/12/21 11:45:55;;;;;;;55.60;22.07;;;;;;;4.15;82.11;103152.06;1814075;79;21303;-78
2020/12/21 11:48:28;;;;;;;72.00;28.83;;;;;;;4.13;82.01;103151.33;1812015;79;21598;-77